createdAt,value
2022-09-12T00:10:00.349Z,12.00
2022-09-12T00:20:08.948Z,11.90
2022-09-12T00:30:12.603Z,13.67
2022-09-12T00:40:15.190Z,11.87
2022-09-12T00:50:27.220Z,12.77
2022-09-12T01:00:30.502Z,12.20
2022-09-12T01:10:43.511Z,12.33
2022-09-12T01:21:05.056Z,10.83
2022-09-12T01:31:40.912Z,10.10
2022-09-12T01:42:10.929Z,9.77
2022-09-12T01:52:33.105Z,9.07
2022-09-12T02:03:02.587Z,9.13
2022-09-12T02:13:15.727Z,20.20
2022-09-12T02:23:32.268Z,15.73
2022-09-12T02:34:04.871Z,16.40
2022-09-12T02:44:09.665Z,22.07
2022-09-12T02:54:15.837Z,31.90
2022-09-12T03:04:57.691Z,54.10
2022-09-12T03:15:10.922Z,34.47
2022-09-12T03:25:31.393Z,48.27
2022-09-12T03:35:33.060Z,34.07
2022-09-12T03:45:36.057Z,40.50
2022-09-12T03:55:39.397Z,32.63
2022-09-12T04:05:41.015Z,49.57
2022-09-12T04:15:42.458Z,15.80
2022-09-12T04:25:44.000Z,16.30
2022-09-12T04:35:45.540Z,59.70
2022-09-12T04:45:47.038Z,31.03
2022-09-12T04:55:48.946Z,63.23
2022-09-12T05:05:53.314Z,81.33
2022-09-12T05:15:59.966Z,48.97
2022-09-12T05:26:03.432Z,74.43
2022-09-12T05:36:09.510Z,31.40
2022-09-12T05:46:22.038Z,52.47
2022-09-12T05:56:26.195Z,25.17
2022-09-12T06:06:29.358Z,39.27
2022-09-12T06:16:32.769Z,10.67
2022-09-12T06:26:34.746Z,60.80
2022-09-12T06:36:42.100Z,25.07
2022-09-12T06:46:44.565Z,65.23
2022-09-12T06:56:46.126Z,38.20
2022-09-12T07:06:48.071Z,8.90
2022-09-12T07:16:49.495Z,7.60
2022-09-12T07:26:50.984Z,8.10
2022-09-12T07:36:52.465Z,20.03
2022-09-12T07:46:53.908Z,7.67
2022-09-12T07:56:55.616Z,13.97
2022-09-12T08:06:57.248Z,12.30
2022-09-12T08:16:58.744Z,13.87
2022-09-12T08:27:00.265Z,16.30
2022-09-12T08:37:02.056Z,15.67
2022-09-12T08:47:25.101Z,16.83
2022-09-12T08:57:26.752Z,12.80
2022-09-12T09:07:42.347Z,12.93
2022-09-12T09:17:49.948Z,12.45
2022-09-12T09:28:12.765Z,9.70
2022-09-12T09:38:54.170Z,8.48
2022-09-12T09:48:59.280Z,7.68
2022-09-12T09:59:26.499Z,6.60
2022-09-12T10:09:33.703Z,6.03
2022-09-12T10:19:40.490Z,5.80
2022-09-12T10:29:48.367Z,4.53
2022-09-12T10:39:56.224Z,3.65
2022-09-12T10:50:28.488Z,3.28
2022-09-12T11:00:34.535Z,1.63
2022-09-12T11:10:51.769Z,2.00
2022-09-12T11:21:09.650Z,3.80
2022-09-12T11:31:24.982Z,9.98
2022-09-12T11:41:37.947Z,4.53
2022-09-12T11:52:11.083Z,5.47
2022-09-12T12:02:20.738Z,7.63
2022-09-12T12:12:27.560Z,3.90
2022-09-12T12:22:29.271Z,4.80
2022-09-12T12:32:30.732Z,4.53
2022-09-12T12:42:35.165Z,4.00
2022-09-12T12:52:51.544Z,4.30
2022-09-12T13:03:08.044Z,4.03
2022-09-12T13:13:09.719Z,4.28
2022-09-12T13:23:26.702Z,4.10
2022-09-12T13:33:51.033Z,4.43
2022-09-12T13:43:52.845Z,4.40
2022-09-12T13:53:58.716Z,4.72
2022-09-12T14:04:18.846Z,4.65
2022-09-12T14:14:38.967Z,4.65
2022-09-12T14:24:40.794Z,3.97
2022-09-12T14:34:42.529Z,4.70
2022-09-12T14:44:58.188Z,4.65
2022-09-12T14:55:23.897Z,4.30
2022-09-12T15:05:27.495Z,5.43
2022-09-12T15:15:28.928Z,4.80
2022-09-12T15:25:30.424Z,5.87
2022-09-12T15:35:33.579Z,5.17
2022-09-12T15:45:35.418Z,5.63
2022-09-12T15:55:37.391Z,5.67
2022-09-12T16:05:38.815Z,5.17
2022-09-12T16:15:40.859Z,5.50
2022-09-12T16:25:42.993Z,9.50
2022-09-12T16:35:44.729Z,5.40
2022-09-12T16:45:46.851Z,4.83
2022-09-12T16:55:49.401Z,7.80
2022-09-12T17:06:01.208Z,7.90
2022-09-12T17:16:07.539Z,5.63
2022-09-12T17:26:10.565Z,5.93
2022-09-12T17:36:17.766Z,5.97
2022-09-12T17:46:19.965Z,5.77
2022-09-12T17:56:21.487Z,5.93
2022-09-12T18:06:24.079Z,6.53
2022-09-12T18:16:26.684Z,7.23
2022-09-12T18:26:29.773Z,7.27
2022-09-12T18:36:31.703Z,7.07
2022-09-12T18:46:34.889Z,8.20
2022-09-12T18:56:38.229Z,7.53
2022-09-12T19:06:42.964Z,7.10
2022-09-12T19:16:44.735Z,7.07
2022-09-12T19:26:46.293Z,7.73
2022-09-12T19:36:47.963Z,8.10
2022-09-12T19:46:49.685Z,8.10
2022-09-12T19:56:51.308Z,9.07
2022-09-12T20:06:52.782Z,9.73
2022-09-12T20:16:54.264Z,9.60
2022-09-12T20:26:57.703Z,10.43
2022-09-12T20:36:59.253Z,10.23
2022-09-12T20:47:00.786Z,10.27
2022-09-12T20:57:02.400Z,11.43
2022-09-12T21:07:03.941Z,11.33
2022-09-12T21:17:05.674Z,11.33
2022-09-12T21:27:07.429Z,11.70
2022-09-12T21:37:09.128Z,11.10
2022-09-12T21:47:10.632Z,12.03
2022-09-12T21:57:12.118Z,11.90
2022-09-12T22:07:14.996Z,12.00
2022-09-12T22:17:16.791Z,28.07
2022-09-12T22:27:18.375Z,14.13
2022-09-12T22:37:23.017Z,14.87
2022-09-12T22:47:24.867Z,13.97
2022-09-12T22:57:26.831Z,13.30
2022-09-12T23:07:28.741Z,14.53
2022-09-12T23:17:30.334Z,13.50
2022-09-12T23:27:32.850Z,13.67
2022-09-12T23:37:34.665Z,12.60
2022-09-12T23:47:36.356Z,13.20
2022-09-12T23:57:39.361Z,15.07
